Time;durP1;ratioP1;P1;durP2;ratioP2;P2;SDS_P1;SDS_P2;PMS_P1;PMS_P2;Temp;Humidity;BMP_temperature;BMP_pressure;BME280_temperature;BME280_humidity;BME280_pressure;Samples;Min_cycle;Max_cycle;Signal;HPM_P1;HPM_P2
2021/10/19 00:00:32;;;;;;;1.38;1.08;;;11.50;99.90;;;;;;5058045;28;20033;-70
2021/10/19 00:02:58;;;;;;;0.70;0.70;;;11.60;99.90;;;;;;5062963;28;20040;-70
2021/10/19 00:05:24;;;;;;;0.13;0.13;;;11.60;99.90;;;;;;5065628;28;20063;-70
2021/10/19 00:07:50;;;;;;;1.25;0.77;;;11.60;99.90;;;;;;5066688;28;20052;-71
2021/10/19 00:10:20;;;;;;;1.45;1.20;;;11.60;99.90;;;;;;5056779;28;20210;-70
2021/10/19 00:12:45;;;;;;;2.17;1.95;;;11.60;99.90;;;;;;5065038;28;20045;-70
2021/10/19 00:15:14;;;;;;;4.68;0.95;;;11.60;99.90;;;;;;5050871;28;20059;-70
2021/10/19 00:17:43;;;;;;;0.50;0.50;;;11.60;99.90;;;;;;5066963;28;20021;-70
2021/10/19 00:20:10;;;;;;;2.05;1.48;;;11.60;99.90;;;;;;5070168;28;20471;-70
2021/10/19 00:22:37;;;;;;;3.42;1.33;;;11.60;99.90;;;;;;5068622;28;20052;-71
2021/10/19 00:25:06;;;;;;;4.30;0.70;;;11.60;99.90;;;;;;5067998;28;20016;-70
2021/10/19 00:27:35;;;;;;;1.70;1.50;;;11.60;99.90;;;;;;5052196;28;20124;-70
2021/10/19 00:30:05;;;;;;;0.80;0.75;;;11.60;99.90;;;;;;5066113;28;20032;-70
2021/10/19 00:32:30;;;;;;;1.40;1.13;;;11.70;99.90;;;;;;5058239;28;20615;-70
2021/10/19 00:34:56;;;;;;;0.77;0.52;;;11.60;99.90;;;;;;5069083;28;20123;-70
2021/10/19 00:37:21;;;;;;;1.42;1.17;;;11.60;99.90;;;;;;5063796;28;20418;-70
2021/10/19 00:39:46;;;;;;;2.17;1.40;;;11.60;99.90;;;;;;5055463;28;20036;-70
2021/10/19 00:42:12;;;;;;;2.17;1.27;;;11.60;99.90;;;;;;5065418;28;20067;-70
2021/10/19 00:44:38;;;;;;;0.98;0.45;;;11.50;99.90;;;;;;5056515;28;20067;-70
2021/10/19 00:47:04;;;;;;;1.40;1.33;;;11.50;99.90;;;;;;5069088;28;20127;-70
2021/10/19 00:49:29;;;;;;;0.98;0.98;;;11.40;99.90;;;;;;5054727;28;20020;-70
2021/10/19 00:51:55;;;;;;;0.52;0.52;;;11.40;99.90;;;;;;5062365;28;20033;-71
2021/10/19 00:54:22;;;;;;;1.60;0.85;;;11.40;99.90;;;;;;5068436;28;20098;-70
2021/10/19 00:56:48;;;;;;;0.20;0.20;;;11.40;99.90;;;;;;5059743;28;20455;-70
2021/10/19 00:59:15;;;;;;;1.17;1.08;;;11.40;99.90;;;;;;5056233;28;20010;-71
2021/10/19 01:01:41;;;;;;;1.92;1.13;;;11.30;99.90;;;;;;5067523;28;20040;-70
2021/10/19 01:04:06;;;;;;;4.75;1.05;;;11.30;99.90;;;;;;5053723;28;20029;-70
2021/10/19 01:06:32;;;;;;;0.28;0.28;;;11.30;99.90;;;;;;5066735;28;20554;-70
2021/10/19 01:08:58;;;;;;;3.30;1.60;;;11.30;99.90;;;;;;5055618;28;20542;-70
2021/10/19 01:11:24;;;;;;;6.70;1.50;;;11.30;99.90;;;;;;5065459;28;20101;-70
2021/10/19 01:13:49;;;;;;;0.40;0.32;;;11.30;99.90;;;;;;5052041;28;20087;-71
2021/10/19 01:16:15;;;;;;;0.77;0.77;;;11.30;99.90;;;;;;5062276;28;20516;-70
2021/10/19 01:18:41;;;;;;;1.08;1.00;;;11.30;99.90;;;;;;5054284;28;20037;-70
2021/10/19 01:21:08;;;;;;;0.40;0.40;;;11.30;99.90;;;;;;5055356;28;20417;-72
2021/10/19 01:23:34;;;;;;;0.82;0.82;;;11.20;99.90;;;;;;5059334;28;20053;-71
2021/10/19 01:26:03;;;;;;;1.02;1.02;;;11.30;99.90;;;;;;5065824;28;20047;-71
2021/10/19 01:28:29;;;;;;;1.27;0.93;;;11.20;99.90;;;;;;5051923;28;20039;-72
2021/10/19 01:30:58;;;;;;;0.65;0.55;;;11.20;99.90;;;;;;5050775;28;20029;-71
2021/10/19 01:33:24;;;;;;;0.90;0.77;;;11.20;99.90;;;;;;5052731;28;20115;-70
2021/10/19 01:35:50;;;;;;;1.35;1.17;;;11.20;99.90;;;;;;5053627;28;20123;-71
2021/10/19 01:38:18;;;;;;;0.77;0.77;;;11.20;99.90;;;;;;5053293;28;20024;-70
2021/10/19 01:40:45;;;;;;;1.08;1.05;;;11.10;99.90;;;;;;5063532;28;20361;-70
2021/10/19 01:43:13;;;;;;;0.77;0.77;;;11.10;99.90;;;;;;5062079;28;20108;-70
2021/10/19 01:45:39;;;;;;;7.00;1.75;;;11.10;99.90;;;;;;5067331;28;20043;-70
2021/10/19 01:48:05;;;;;;;1.42;0.93;;;11.10;99.90;;;;;;5068545;28;20389;-70
2021/10/19 01:50:30;;;;;;;10.30;0.93;;;11.10;99.90;;;;;;5059376;28;20075;-70
2021/10/19 01:52:57;;;;;;;1.52;1.17;;;11.10;99.90;;;;;;5051191;28;20475;-70
2021/10/19 01:55:22;;;;;;;1.33;1.23;;;11.10;99.90;;;;;;5067426;28;20028;-70
2021/10/19 01:57:48;;;;;;;3.22;1.63;;;11.10;99.90;;;;;;5066640;28;20479;-70
2021/10/19 02:00:13;;;;;;;1.65;1.55;;;11.00;99.90;;;;;;5055090;28;20487;-70
2021/10/19 02:02:40;;;;;;;1.40;1.20;;;11.10;99.90;;;;;;5050643;28;20033;-70
2021/10/19 02:05:07;;;;;;;1.27;1.27;;;11.10;99.90;;;;;;5055334;28;20112;-70
2021/10/19 02:07:32;;;;;;;2.00;1.73;;;11.10;99.90;;;;;;5061307;28;20024;-71
2021/10/19 02:09:59;;;;;;;1.15;1.05;;;11.10;99.90;;;;;;5063715;28;20033;-70
2021/10/19 02:12:25;;;;;;;0.98;0.80;;;11.10;99.90;;;;;;5056100;28;20062;-70
2021/10/19 02:14:50;;;;;;;5.00;1.35;;;11.10;99.90;;;;;;5064107;28;20475;-71
2021/10/19 02:17:16;;;;;;;1.30;0.60;;;11.20;99.90;;;;;;5055729;28;20713;-71
2021/10/19 02:19:41;;;;;;;1.13;1.02;;;11.20;99.90;;;;;;5054329;28;20024;-71
2021/10/19 02:22:07;;;;;;;2.25;1.55;;;11.20;99.90;;;;;;5063434;28;20024;-70
2021/10/19 02:24:32;;;;;;;5.03;1.73;;;11.20;99.90;;;;;;5064356;28;20367;-70
2021/10/19 02:26:58;;;;;;;0.50;0.50;;;11.30;99.90;;;;;;5066573;28;20115;-71
2021/10/19 02:29:23;;;;;;;3.28;1.77;;;11.30;99.90;;;;;;5061386;28;20036;-70
2021/10/19 02:31:49;;;;;;;3.13;1.42;;;11.30;99.90;;;;;;5058534;28;20491;-71
2021/10/19 02:34:18;;;;;;;11.15;2.05;;;11.30;99.90;;;;;;5063432;28;20052;-70
2021/10/19 02:36:44;;;;;;;6.47;1.75;;;11.30;99.90;;;;;;5063853;28;20098;-71
2021/10/19 02:39:09;;;;;;;4.22;1.10;;;11.20;99.90;;;;;;5053875;28;20018;-71
2021/10/19 02:41:36;;;;;;;0.57;0.57;;;11.30;99.90;;;;;;5053303;28;20387;-71
2021/10/19 02:44:02;;;;;;;0.80;0.80;;;11.20;99.90;;;;;;5059594;28;20116;-70
2021/10/19 02:46:31;;;;;;;0.98;0.98;;;11.20;99.90;;;;;;5061642;28;20491;-70
2021/10/19 02:48:57;;;;;;;1.42;1.27;;;11.20;99.90;;;;;;5066289;28;20033;-70
2021/10/19 02:51:22;;;;;;;1.73;1.45;;;11.20;99.90;;;;;;5061218;28;20039;-70
2021/10/19 02:53:48;;;;;;;1.83;1.52;;;11.20;99.90;;;;;;5065207;28;20115;-71
2021/10/19 02:56:14;;;;;;;1.63;1.52;;;11.10;99.90;;;;;;5064996;28;20464;-70
2021/10/19 02:58:39;;;;;;;1.63;1.23;;;11.10;99.90;;;;;;5062808;28;20085;-71
2021/10/19 03:01:05;;;;;;;3.17;2.47;;;11.00;99.90;;;;;;5052712;28;20048;-71
2021/10/19 03:03:30;;;;;;;2.92;1.52;;;11.00;99.90;;;;;;5061904;28;20112;-71
2021/10/19 03:05:56;;;;;;;1.60;1.27;;;11.00;99.90;;;;;;5056717;28;20495;-70
2021/10/19 03:08:22;;;;;;;2.42;1.20;;;10.90;99.90;;;;;;5066943;28;20107;-71
2021/10/19 03:10:48;;;;;;;1.27;1.15;;;10.90;99.90;;;;;;5053728;28;20037;-71
2021/10/19 03:13:14;;;;;;;4.75;1.85;;;10.90;99.90;;;;;;5065498;28;20035;-71
2021/10/19 03:15:39;;;;;;;4.40;1.50;;;10.90;99.90;;;;;;5065749;28;20475;-71
2021/10/19 03:18:05;;;;;;;1.33;1.30;;;10.90;99.90;;;;;;5062194;28;20067;-71
2021/10/19 03:20:30;;;;;;;0.60;0.60;;;10.90;99.90;;;;;;5054640;28;20012;-71
2021/10/19 03:22:56;;;;;;;1.17;1.00;;;10.90;99.90;;;;;;5063229;28;20135;-71
2021/10/19 03:25:22;;;;;;;1.27;1.15;;;10.90;99.90;;;;;;5056306;28;20071;-70
2021/10/19 03:27:47;;;;;;;0.60;0.60;;;10.90;99.90;;;;;;5055691;28;20051;-71
2021/10/19 03:30:13;;;;;;;1.23;1.13;;;11.00;99.90;;;;;;5054894;28;20510;-71
2021/10/19 03:32:38;;;;;;;2.95;2.53;;;11.00;99.90;;;;;;5066940;28;20089;-71
2021/10/19 03:35:04;;;;;;;2.22;2.00;;;11.00;99.90;;;;;;5055598;28;20025;-71
2021/10/19 03:37:30;;;;;;;1.13;1.02;;;11.10;99.90;;;;;;5054286;28;20074;-71
2021/10/19 03:39:55;;;;;;;1.00;0.95;;;11.00;99.90;;;;;;5060355;28;20032;-71
2021/10/19 03:42:21;;;;;;;2.33;1.58;;;11.00;99.90;;;;;;5055377;28;20034;-70
2021/10/19 03:44:46;;;;;;;0.68;0.68;;;11.00;99.90;;;;;;5050905;28;20467;-70
2021/10/19 03:47:12;;;;;;;1.95;1.85;;;11.00;99.90;;;;;;5060778;28;20030;-70
2021/10/19 03:49:37;;;;;;;0.90;0.52;;;11.00;99.90;;;;;;5051255;28;20475;-70
2021/10/19 03:52:03;;;;;;;1.38;1.27;;;11.00;99.90;;;;;;5063009;28;20107;-70
2021/10/19 03:54:28;;;;;;;0.75;0.75;;;11.00;99.90;;;;;;5050769;28;20037;-71
2021/10/19 03:56:54;;;;;;;1.45;1.35;;;11.00;99.90;;;;;;5066684;28;20035;-71
2021/10/19 03:59:19;;;;;;;1.05;0.93;;;11.00;99.90;;;;;;5055972;28;20021;-70
2021/10/19 04:01:45;;;;;;;0.63;0.63;;;11.00;99.90;;;;;;5054937;28;20566;-70
2021/10/19 04:04:11;;;;;;;0.80;0.80;;;11.00;99.90;;;;;;5065822;28;20032;-70
2021/10/19 04:06:38;;;;;;;2.50;0.60;;;11.00;99.90;;;;;;5053028;28;20037;-70
2021/10/19 04:09:03;;;;;;;0.65;0.65;;;11.00;99.90;;;;;;5057974;28;20502;-70
2021/10/19 04:11:29;;;;;;;0.75;0.75;;;11.00;99.90;;;;;;5068880;28;20032;-70
2021/10/19 04:13:55;;;;;;;0.77;0.77;;;11.00;99.90;;;;;;5063813;28;20053;-71
2021/10/19 04:16:20;;;;;;;1.17;1.10;;;11.00;99.90;;;;;;5063656;28;20432;-70
2021/10/19 04:18:45;;;;;;;2.80;1.95;;;11.00;99.90;;;;;;5061424;28;20107;-71
2021/10/19 04:21:11;;;;;;;1.08;0.98;;;11.00;99.90;;;;;;5059967;28;20494;-70
2021/10/19 04:23:37;;;;;;;0.57;0.57;;;11.00;99.90;;;;;;5060056;28;20064;-70
2021/10/19 04:26:03;;;;;;;2.53;1.27;;;11.00;99.90;;;;;;5060076;28;20263;-70
2021/10/19 04:28:28;;;;;;;5.32;1.23;;;11.00;99.90;;;;;;5057658;28;20033;-70
2021/10/19 04:30:55;;;;;;;2.35;1.85;;;11.00;99.90;;;;;;5053631;28;20071;-70
2021/10/19 04:33:20;;;;;;;1.35;1.25;;;11.00;99.90;;;;;;5054883;28;20476;-70
2021/10/19 04:35:46;;;;;;;1.33;1.23;;;11.00;99.90;;;;;;5063068;28;20064;-70
2021/10/19 04:38:12;;;;;;;1.42;1.08;;;10.90;99.90;;;;;;5058278;28;20029;-71
2021/10/19 04:40:38;;;;;;;2.97;2.05;;;10.90;99.90;;;;;;5058178;28;20062;-71
2021/10/19 04:43:03;;;;;;;1.00;1.00;;;10.90;99.90;;;;;;5068099;28;20028;-70
2021/10/19 04:45:29;;;;;;;3.30;1.70;;;10.90;99.90;;;;;;5067404;28;20031;-70
2021/10/19 04:48:00;;;;;;;1.23;1.13;;;10.90;99.90;;;;;;5064878;28;20070;-71
2021/10/19 04:50:26;;;;;;;1.83;1.38;;;10.90;99.90;;;;;;5064705;28;20032;-70
2021/10/19 04:52:51;;;;;;;3.60;1.10;;;10.90;99.90;;;;;;5051580;28;20078;-70
2021/10/19 04:55:17;;;;;;;2.15;1.75;;;10.90;99.90;;;;;;5064031;28;20021;-70
2021/10/19 04:57:42;;;;;;;1.15;1.05;;;10.80;99.90;;;;;;5062375;28;20383;-71
2021/10/19 05:00:08;;;;;;;0.77;0.77;;;10.80;99.90;;;;;;5065210;28;20056;-70
2021/10/19 05:02:42;;;;;;;4.18;1.15;;;10.70;99.90;;;;;;5057573;28;20017;-70
2021/10/19 05:05:08;;;;;;;1.05;1.05;;;10.70;99.90;;;;;;5062515;28;20033;-70
2021/10/19 05:07:33;;;;;;;1.85;0.82;;;10.70;99.90;;;;;;5063252;28;20439;-71
2021/10/19 05:09:59;;;;;;;2.58;1.23;;;10.60;99.90;;;;;;5058786;28;20028;-70
2021/10/19 05:12:24;;;;;;;0.93;0.45;;;10.60;99.90;;;;;;5061027;28;20036;-70
2021/10/19 05:14:50;;;;;;;3.95;1.23;;;10.60;99.90;;;;;;5056920;28;20075;-70
2021/10/19 05:17:15;;;;;;;0.82;0.82;;;10.60;99.90;;;;;;5067367;28;20535;-70
2021/10/19 05:19:41;;;;;;;2.40;2.20;;;10.60;99.90;;;;;;5063829;28;20031;-70
2021/10/19 05:22:06;;;;;;;3.60;0.70;;;10.60;99.90;;;;;;5051184;28;20104;-71
2021/10/19 05:24:32;;;;;;;0.93;0.93;;;10.60;99.90;;;;;;5060613;28;20064;-71
2021/10/19 05:26:57;;;;;;;1.00;1.00;;;10.60;99.90;;;;;;5057255;28;20021;-70
2021/10/19 05:29:22;;;;;;;1.35;1.17;;;10.60;99.90;;;;;;5056201;28;20032;-71
2021/10/19 05:31:48;;;;;;;2.25;1.70;;;10.60;99.90;;;;;;5065745;28;20577;-71
2021/10/19 05:34:13;;;;;;;1.65;1.55;;;10.60;99.90;;;;;;5061435;28;20184;-74
2021/10/19 05:36:39;;;;;;;1.38;1.30;;;10.60;99.90;;;;;;5061722;28;20017;-71
2021/10/19 05:39:05;;;;;;;1.85;1.75;;;10.60;99.90;;;;;;5051925;28;20025;-71
2021/10/19 05:41:30;;;;;;;2.25;1.83;;;10.60;99.90;;;;;;5066345;28;20035;-71
2021/10/19 05:43:56;;;;;;;2.33;2.10;;;10.60;99.90;;;;;;5062676;28;20460;-71
2021/10/19 05:46:21;;;;;;;2.65;1.90;;;10.60;99.90;;;;;;5065218;28;20029;-71
2021/10/19 05:48:47;;;;;;;1.65;1.27;;;10.70;99.90;;;;;;5061498;28;20025;-70
2021/10/19 05:51:12;;;;;;;3.40;2.03;;;10.70;99.90;;;;;;5060454;28;20413;-71
2021/10/19 05:53:37;;;;;;;0.90;0.90;;;10.70;99.90;;;;;;5067460;28;20060;-70
2021/10/19 05:56:03;;;;;;;1.75;1.65;;;10.80;99.90;;;;;;5061751;28;20037;-71
2021/10/19 05:58:29;;;;;;;2.22;2.03;;;10.80;99.90;;;;;;5066632;28;20501;-70
2021/10/19 06:00:54;;;;;;;1.33;0.93;;;10.80;99.90;;;;;;5063513;28;20483;-71
2021/10/19 06:03:20;;;;;;;2.17;1.90;;;10.90;99.90;;;;;;5058043;28;20021;-71
2021/10/19 06:05:46;;;;;;;1.85;1.52;;;10.90;99.90;;;;;;5062283;28;20540;-70
2021/10/19 06:08:11;;;;;;;1.05;0.95;;;10.90;99.90;;;;;;5064353;28;20039;-70
2021/10/19 06:10:37;;;;;;;1.35;1.23;;;10.90;99.90;;;;;;5042654;28;20029;-70
2021/10/19 06:13:02;;;;;;;4.95;1.52;;;11.00;99.90;;;;;;5063667;28;20112;-69
2021/10/19 06:15:28;;;;;;;5.80;1.85;;;11.00;99.90;;;;;;5049906;28;20037;-70
2021/10/19 06:17:54;;;;;;;2.33;1.42;;;11.00;99.90;;;;;;5049776;28;20093;-71
2021/10/19 06:20:20;;;;;;;1.42;1.08;;;11.10;99.90;;;;;;5066431;28;20021;-70
2021/10/19 06:22:46;;;;;;;1.95;1.67;;;11.10;99.90;;;;;;5065797;28;20075;-69
2021/10/19 06:25:12;;;;;;;2.13;1.60;;;11.10;99.90;;;;;;5056522;28;20361;-69
2021/10/19 06:27:38;;;;;;;2.17;1.83;;;11.20;99.90;;;;;;5061537;28;20543;-70
2021/10/19 06:30:04;;;;;;;1.88;1.77;;;11.20;99.90;;;;;;5050988;28;20088;-70
2021/10/19 06:32:30;;;;;;;4.10;2.55;;;11.20;99.90;;;;;;5048973;28;20108;-70
2021/10/19 06:34:55;;;;;;;6.60;3.40;;;11.30;99.90;;;;;;5035974;28;20154;-70
2021/10/19 06:37:21;;;;;;;2.38;1.52;;;11.30;99.90;;;;;;5065579;28;20487;-70
2021/10/19 06:39:46;;;;;;;3.05;1.77;;;11.40;99.90;;;;;;5053806;28;20029;-70
2021/10/19 06:42:12;;;;;;;1.60;1.50;;;11.40;99.90;;;;;;5060498;28;20016;-70
2021/10/19 06:44:37;;;;;;;2.08;1.98;;;11.40;99.90;;;;;;5058369;28;20067;-70
2021/10/19 06:47:03;;;;;;;0.82;0.40;;;11.50;99.90;;;;;;5055931;28;20056;-71
2021/10/19 06:49:28;;;;;;;2.25;2.05;;;11.50;99.90;;;;;;5059422;28;20123;-70
2021/10/19 06:51:53;;;;;;;1.48;1.25;;;11.50;99.90;;;;;;5066639;28;20028;-69
2021/10/19 06:54:19;;;;;;;1.95;1.63;;;11.50;99.90;;;;;;5070078;28;20379;-69
2021/10/19 06:56:45;;;;;;;1.88;1.77;;;11.60;99.90;;;;;;5062032;28;20029;-71
2021/10/19 06:59:10;;;;;;;1.50;1.42;;;11.60;99.90;;;;;;5071845;28;20017;-72
2021/10/19 07:01:36;;;;;;;3.92;2.40;;;11.60;99.90;;;;;;5060445;28;20021;-70
2021/10/19 07:04:01;;;;;;;1.05;1.05;;;11.70;99.90;;;;;;5053287;28;20101;-70
2021/10/19 07:06:27;;;;;;;1.92;1.80;;;11.70;99.90;;;;;;5062637;28;20082;-70
2021/10/19 07:08:53;;;;;;;2.38;1.48;;;11.80;99.90;;;;;;5065048;28;20414;-70
2021/10/19 07:11:19;;;;;;;1.25;0.95;;;11.70;99.90;;;;;;5066575;28;20478;-69
2021/10/19 07:13:45;;;;;;;3.50;2.72;;;11.80;99.90;;;;;;5066350;28;20219;-70
2021/10/19 07:16:11;;;;;;;1.90;1.80;;;11.80;99.90;;;;;;5066508;28;20116;-70
2021/10/19 07:18:37;;;;;;;2.70;2.50;;;11.80;99.90;;;;;;5066320;28;20038;-70
2021/10/19 07:21:02;;;;;;;2.08;1.88;;;11.90;99.90;;;;;;5066501;28;20032;-70
2021/10/19 07:23:28;;;;;;;2.47;2.05;;;11.90;99.90;;;;;;5065993;28;20048;-70
2021/10/19 07:25:53;;;;;;;1.75;1.38;;;11.90;99.90;;;;;;5066906;28;20024;-71
2021/10/19 07:28:19;;;;;;;1.15;1.05;;;11.90;99.90;;;;;;5066480;28;20383;-71
2021/10/19 07:30:45;;;;;;;2.28;1.60;;;12.00;99.90;;;;;;5066054;28;20098;-70
2021/10/19 07:33:11;;;;;;;3.80;2.08;;;12.00;99.90;;;;;;5066795;28;20056;-70
2021/10/19 07:35:37;;;;;;;1.67;1.48;;;12.00;99.90;;;;;;5066187;28;20031;-70
2021/10/19 07:38:03;;;;;;;2.42;1.13;;;12.10;99.90;;;;;;5066599;28;20024;-70
2021/10/19 07:40:29;;;;;;;4.10;1.13;;;12.20;99.90;;;;;;5065976;28;20028;-71
2021/10/19 07:42:56;;;;;;;0.60;0.60;;;12.20;99.90;;;;;;5067423;28;20356;-70
2021/10/19 07:45:23;;;;;;;2.50;1.75;;;12.20;99.90;;;;;;5070222;28;20511;-70
2021/10/19 07:47:49;;;;;;;2.35;1.25;;;12.30;99.90;;;;;;5069829;28;20036;-70
2021/10/19 07:50:17;;;;;;;3.05;1.63;;;12.30;99.90;;;;;;5070084;28;20032;-70
2021/10/19 07:52:43;;;;;;;2.33;2.13;;;12.40;99.90;;;;;;5069701;28;20029;-70
2021/10/19 07:55:10;;;;;;;1.48;1.38;;;12.40;99.90;;;;;;5070161;28;20039;-70
2021/10/19 07:57:49;;;;;;;1.50;1.20;;;12.40;99.90;;;;;;5069291;28;20393;-70
2021/10/19 08:00:20;;;;;;;2.80;1.95;;;12.50;99.90;;;;;;5069776;28;20017;-70
2021/10/19 08:02:46;;;;;;;2.10;2.00;;;12.50;99.90;;;;;;5069268;28;20514;-69
2021/10/19 08:05:13;;;;;;;2.00;1.83;;;12.60;99.90;;;;;;5069500;28;20020;-70
2021/10/19 08:07:40;;;;;;;5.43;3.10;;;12.60;99.90;;;;;;5069969;28;20576;-70
2021/10/19 08:10:06;;;;;;;1.27;1.17;;;12.70;99.90;;;;;;5069639;28;20051;-70
2021/10/19 08:12:32;;;;;;;1.92;1.83;;;12.80;99.90;;;;;;5069428;28;20025;-70
2021/10/19 08:15:01;;;;;;;2.20;1.77;;;12.90;99.90;;;;;;5069347;28;20446;-70
2021/10/19 08:17:27;;;;;;;2.97;1.80;;;12.90;99.90;;;;;;5069541;28;20408;-70
2021/10/19 08:19:53;;;;;;;3.40;1.48;;;12.90;99.90;;;;;;5069959;28;20025;-70
2021/10/19 08:22:19;;;;;;;1.33;1.27;;;13.00;99.90;;;;;;5069426;28;20063;-70
2021/10/19 08:24:44;;;;;;;4.03;2.78;;;13.10;99.90;;;;;;5069230;28;20048;-71
2021/10/19 08:27:09;;;;;;;6.07;1.55;;;13.20;99.90;;;;;;5069651;28;20039;-70
2021/10/19 08:29:35;;;;;;;3.05;1.95;;;13.20;99.90;;;;;;5069064;28;20387;-70
2021/10/19 08:32:00;;;;;;;3.35;2.33;;;13.20;99.90;;;;;;5069429;28;20090;-70
2021/10/19 08:34:26;;;;;;;1.77;1.35;;;13.20;99.90;;;;;;5069431;28;20071;-70
2021/10/19 08:36:51;;;;;;;2.17;1.98;;;13.20;99.90;;;;;;5068907;28;20017;-70
2021/10/19 08:39:17;;;;;;;3.03;2.55;;;13.30;99.90;;;;;;5069296;28;20089;-69
2021/10/19 08:41:42;;;;;;;1.33;1.23;;;13.40;99.90;;;;;;5068929;28;20036;-70
2021/10/19 08:44:08;;;;;;;3.35;2.08;;;13.40;99.90;;;;;;5069257;28;20081;-71
2021/10/19 08:46:34;;;;;;;5.38;2.20;;;13.50;99.90;;;;;;5068298;28;20379;-70
2021/10/19 08:49:00;;;;;;;2.90;1.83;;;13.60;99.90;;;;;;5069040;28;20031;-70
2021/10/19 08:51:25;;;;;;;1.55;1.45;;;13.70;99.90;;;;;;5069548;28;20021;-71
2021/10/19 08:53:51;;;;;;;1.25;1.15;;;13.70;99.90;;;;;;5068578;28;20025;-70
2021/10/19 08:56:16;;;;;;;2.10;1.45;;;13.80;99.90;;;;;;5068784;28;20021;-70
2021/10/19 08:58:43;;;;;;;2.38;2.05;;;13.90;99.90;;;;;;5068189;28;20013;-70
2021/10/19 09:01:10;;;;;;;4.78;2.38;;;14.00;99.90;;;;;;5068921;28;20486;-70
2021/10/19 09:03:50;;;;;;;1.73;1.63;;;14.10;99.80;;;;;;5069047;28;20021;-70
2021/10/19 09:06:17;;;;;;;2.50;1.63;;;14.30;99.50;;;;;;5069053;28;20228;-70
2021/10/19 09:08:45;;;;;;;2.55;2.03;;;14.40;99.00;;;;;;5069442;28;20028;-71
2021/10/19 09:11:14;;;;;;;3.28;2.63;;;14.50;97.70;;;;;;5069243;28;20096;-70
2021/10/19 09:13:51;;;;;;;2.78;1.60;;;14.40;97.40;;;;;;5068993;28;20024;-69
2021/10/19 09:16:16;;;;;;;1.38;1.00;;;14.40;97.40;;;;;;5067896;28;20032;-70
2021/10/19 09:18:42;;;;;;;1.77;1.40;;;14.50;97.70;;;;;;5068388;28;20471;-70
2021/10/19 09:21:08;;;;;;;3.63;1.58;;;14.60;97.20;;;;;;5068599;28;20024;-70
2021/10/19 09:23:34;;;;;;;2.10;1.48;;;14.80;97.00;;;;;;5068108;28;20055;-70
2021/10/19 09:26:01;;;;;;;2.60;2.33;;;14.90;96.00;;;;;;5067611;28;20025;-71
2021/10/19 09:28:34;;;;;;;2.97;1.48;;;14.90;96.10;;;;;;5067972;28;20031;-70
2021/10/19 09:31:00;;;;;;;3.28;2.90;;;15.00;95.30;;;;;;5068061;28;20059;-70
2021/10/19 09:33:25;;;;;;;2.60;1.92;;;15.00;95.20;;;;;;5068610;28;20028;-70
2021/10/19 09:35:55;;;;;;;1.85;1.17;;;15.00;95.10;;;;;;5054524;28;20523;-70
2021/10/19 09:38:21;;;;;;;2.72;1.30;;;15.00;95.40;;;;;;5068027;28;20069;-70
2021/10/19 09:40:52;;;;;;;1.77;1.45;;;15.10;95.30;;;;;;5067582;28;20115;-70
2021/10/19 09:43:20;;;;;;;4.95;1.35;;;15.10;95.20;;;;;;5067915;28;20055;-70
2021/10/19 09:45:50;;;;;;;32.35;1.65;;;15.10;95.00;;;;;;5067439;28;20032;-70
2021/10/19 09:48:17;;;;;;;7.10;1.10;;;15.10;94.70;;;;;;5067694;28;20126;-70
2021/10/19 09:50:45;;;;;;;1.40;1.30;;;15.20;95.30;;;;;;5067751;28;20024;-71
2021/10/19 09:53:12;;;;;;;3.17;2.08;;;15.30;95.00;;;;;;5068155;28;20058;-70
2021/10/19 09:55:39;;;;;;;0.88;0.77;;;15.40;94.30;;;;;;5067767;28;20028;-71
2021/10/19 09:58:05;;;;;;;3.03;1.60;;;15.40;94.20;;;;;;5067687;28;20021;-71
2021/10/19 10:00:33;;;;;;;3.90;1.75;;;15.50;94.50;;;;;;5067277;28;20142;-71
2021/10/19 10:03:04;;;;;;;1.40;1.13;;;15.60;94.50;;;;;;5067558;28;20028;-70
2021/10/19 10:05:34;;;;;;;2.03;1.85;;;15.60;93.90;;;;;;5066788;28;20033;-70
2021/10/19 10:08:00;;;;;;;31.17;4.43;;;15.70;93.70;;;;;;5067515;28;20047;-71
2021/10/19 10:10:27;;;;;;;3.70;2.17;;;15.70;92.90;;;;;;5067817;28;20437;-71
2021/10/19 10:13:04;;;;;;;1.13;1.08;;;15.70;93.00;;;;;;5067454;28;20044;-71
2021/10/19 10:15:32;;;;;;;3.30;1.88;;;15.80;93.00;;;;;;5066931;28;20032;-70
2021/10/19 10:18:05;;;;;;;16.00;3.17;;;15.80;92.70;;;;;;5067202;28;20025;-71
2021/10/19 10:20:34;;;;;;;1.55;1.20;;;15.80;93.00;;;;;;5066765;28;20020;-70
2021/10/19 10:23:26;;;;;;;0.75;0.68;;;15.90;92.70;;;;;;5066128;28;20040;-71
2021/10/19 10:25:55;;;;;;;2.65;2.05;;;15.90;92.90;;;;;;5066902;28;20017;-70
2021/10/19 10:28:23;;;;;;;1.52;1.17;;;15.90;92.80;;;;;;5067025;28;20028;-71
2021/10/19 10:30:49;;;;;;;0.82;0.82;;;15.80;93.20;;;;;;5066327;28;20032;-71
2021/10/19 10:33:14;;;;;;;1.25;1.25;;;15.90;93.30;;;;;;5066443;28;20430;-71
2021/10/19 10:35:46;;;;;;;0.52;0.52;;;15.90;92.90;;;;;;5067091;28;20443;-71
2021/10/19 10:38:11;;;;;;;;;;;15.90;92.70;;;;;;5067480;28;20137;-71
2021/10/19 10:40:44;;;;;;;2.40;2.05;;;15.90;93.20;;;;;;5066971;28;19991;-71
2021/10/19 10:43:17;;;;;;;1.08;0.77;;;16.00;93.40;;;;;;5060760;28;20067;-70
2021/10/19 10:45:43;;;;;;;4.90;1.95;;;16.10;93.30;;;;;;5066579;28;20017;-71
2021/10/19 10:48:09;;;;;;;2.47;1.48;;;16.20;93.60;;;;;;5066975;28;20393;-71
2021/10/19 10:50:37;;;;;;;1.70;1.45;;;16.30;93.00;;;;;;5066434;28;20030;-71
2021/10/19 10:53:10;;;;;;;5.15;2.30;;;16.30;92.70;;;;;;5065965;28;20116;-71
2021/10/19 10:55:42;;;;;;;4.20;1.00;;;16.40;92.50;;;;;;5066405;28;20041;-71
2021/10/19 10:58:08;;;;;;;2.97;1.70;;;16.60;92.40;;;;;;5066427;28;20086;-71
2021/10/19 11:00:33;;;;;;;1.05;0.82;;;16.60;92.10;;;;;;5066262;28;20467;-71
2021/10/19 11:03:10;;;;;;;1.83;1.08;;;16.60;91.90;;;;;;5066496;28;20086;-71
2021/10/19 11:05:37;;;;;;;0.93;0.93;;;16.50;91.80;;;;;;5066345;28;20025;-71
2021/10/19 11:08:03;;;;;;;2.10;1.75;;;16.60;92.00;;;;;;5066393;28;20714;-70
2021/10/19 11:10:29;;;;;;;2.38;1.08;;;16.70;91.80;;;;;;5066301;28;20033;-71
2021/10/19 11:13:00;;;;;;;4.00;1.67;;;16.90;91.80;;;;;;5066377;28;20039;-71
2021/10/19 11:15:25;;;;;;;3.33;3.03;;;17.10;91.50;;;;;;5066875;28;20313;-71
2021/10/19 11:17:53;;;;;;;1.60;1.50;;;17.30;90.60;;;;;;5067588;28;20033;-71
2021/10/19 11:20:20;;;;;;;2.05;1.08;;;17.40;90.10;;;;;;5070535;28;20548;-71
2021/10/19 11:22:48;;;;;;;0.60;0.60;;;17.50;90.00;;;;;;5070097;28;20553;-71
2021/10/19 11:25:14;;;;;;;1.63;1.52;;;17.80;88.40;;;;;;5070215;28;20560;-71
2021/10/19 11:27:40;;;;;;;2.85;1.52;;;18.00;87.60;;;;;;5070311;28;20484;-71
2021/10/19 11:30:07;;;;;;;1.42;1.33;;;18.10;86.10;;;;;;5069969;28;20491;-71
2021/10/19 11:32:34;;;;;;;1.75;1.35;;;18.20;85.10;;;;;;5070150;28;20100;-70
2021/10/19 11:35:00;;;;;;;0.70;0.70;;;18.30;84.80;;;;;;5069941;28;20094;-71
2021/10/19 11:37:26;;;;;;;0.30;0.30;;;18.40;84.60;;;;;;5070565;28;20371;-72
2021/10/19 11:40:04;;;;;;;1.92;1.25;;;18.30;84.40;;;;;;5070214;28;20028;-71
2021/10/19 11:42:51;;;;;;;2.55;0.75;;;18.20;84.90;;;;;;5069665;28;20027;-70
2021/10/19 11:45:18;;;;;;;0.95;0.75;;;18.00;85.60;;;;;;5056380;28;20294;-71
2021/10/19 11:47:46;;;;;;;0.65;0.65;;;18.00;87.40;;;;;;5069819;28;20037;-70
2021/10/19 11:50:13;;;;;;;3.30;1.30;;;18.00;85.60;;;;;;5070237;28;20032;-71
2021/10/19 11:52:38;;;;;;;4.05;1.35;;;18.00;85.10;;;;;;5070105;28;20483;-70
2021/10/19 11:55:04;;;;;;;5.10;2.33;;;18.00;86.60;;;;;;5069623;28;20035;-71
2021/10/19 11:57:38;;;;;;;1.90;1.40;;;18.00;86.60;;;;;;5069521;28;20488;-71
2021/10/19 12:00:11;;;;;;;0.40;0.40;;;17.90;86.10;;;;;;5069772;28;20036;-71
2021/10/19 12:02:57;;;;;;;1.35;1.25;;;17.90;86.60;;;;;;5070256;28;20012;-70
2021/10/19 12:05:25;;;;;;;1.15;0.55;;;17.80;86.20;;;;;;5059629;28;20099;-71
2021/10/19 12:07:52;;;;;;;0.75;0.63;;;17.80;87.20;;;;;;5069139;28;20120;-71
2021/10/19 12:10:22;;;;;;;1.58;1.30;;;17.70;87.50;;;;;;5069643;28;20067;-71
2021/10/19 12:12:52;;;;;;;0.93;0.93;;;17.70;86.70;;;;;;5069097;28;20397;-71
2021/10/19 12:15:23;;;;;;;3.45;0.82;;;17.70;87.50;;;;;;5069352;28;20025;-71
2021/10/19 12:17:58;;;;;;;2.10;1.33;;;17.60;87.40;;;;;;5068958;28;20052;-71
2021/10/19 12:20:26;;;;;;;2.60;1.70;;;17.60;87.30;;;;;;5069944;28;20027;-71
2021/10/19 12:22:56;;;;;;;1.17;1.05;;;17.60;87.90;;;;;;5062745;28;20098;-71
2021/10/19 12:25:22;;;;;;;0.52;0.52;;;17.60;89.30;;;;;;5063032;28;20043;-71
2021/10/19 12:27:47;;;;;;;1.38;1.25;;;17.60;90.10;;;;;;5068866;28;20701;-70
2021/10/19 12:30:16;;;;;;;22.30;1.42;;;17.60;89.00;;;;;;5068752;28;20020;-71
2021/10/19 12:32:43;;;;;;;3.95;1.52;;;17.60;88.70;;;;;;5069374;28;20032;-71
2021/10/19 12:35:11;;;;;;;1.40;1.30;;;17.60;88.40;;;;;;5069263;28;20075;-71
2021/10/19 12:37:39;;;;;;;0.90;0.85;;;17.60;89.20;;;;;;5069020;28;20048;-70
2021/10/19 12:40:10;;;;;;;2.05;1.27;;;17.60;90.10;;;;;;5068960;28;20060;-71
2021/10/19 12:42:35;;;;;;;3.70;2.17;;;17.60;89.30;;;;;;5068336;28;20021;-70
2021/10/19 12:45:01;;;;;;;1.55;1.45;;;17.60;90.00;;;;;;5068954;28;20417;-71